sim
Sign-in with your pilot id or email,
or register
Callsign
Passwort

Schedule Details

Flight Number: DLH1703 (1)
Departure: Sofia Airport (LBSF) at 11:40
Arrival: Munich Airport (EDDM) at 13:40
Route: Lufthansa Passenger Schedule. Enter filed route here before submitting Pirep.

Weather Information
Getting current METAR information for LBSF 221330Z 30004KT 230V360 CAVOK 26/09 Q1018 NOSIG
Getting current METAR information for EDDM 221320Z 05004KT 340V140 9999 FEW040 24/14 Q1012 NOSIG

Schedule Frequency

Route Map